sensor_id;sensor_type;location;lat;lon;timestamp;pressure;altitude;pressure_sealevel;temperature;humidity
11499;BME280;5806;48.748;9.278;2023-12-20T00:01:09;100886.66;;;8.09;100.00
11499;BME280;5806;48.748;9.278;2023-12-20T00:03:37;100883.30;;;8.23;100.00
11499;BME280;5806;48.748;9.278;2023-12-20T00:06:06;100879.38;;;8.12;100.00
11499;BME280;5806;48.748;9.278;2023-12-20T00:08:34;100886.45;;;8.20;100.00
11499;BME280;5806;48.748;9.278;2023-12-20T00:11:02;100887.91;;;8.07;100.00
11499;BME280;5806;48.748;9.278;2023-12-20T00:13:30;100892.05;;;8.16;100.00
11499;BME280;5806;48.748;9.278;2023-12-20T00:15:59;100898.78;;;8.13;100.00
11499;BME280;5806;48.748;9.278;2023-12-20T00:18:27;100898.37;;;8.10;100.00
11499;BME280;5806;48.748;9.278;2023-12-20T00:20:54;100880.38;;;8.18;100.00
11499;BME280;5806;48.748;9.278;2023-12-20T00:23:24;100879.92;;;8.12;100.00
11499;BME280;5806;48.748;9.278;2023-12-20T00:25:52;100885.38;;;8.12;100.00
11499;BME280;5806;48.748;9.278;2023-12-20T00:28:19;100888.97;;;8.06;100.00
11499;BME280;5806;48.748;9.278;2023-12-20T00:30:47;100885.89;;;8.11;100.00
11499;BME280;5806;48.748;9.278;2023-12-20T00:33:15;100880.22;;;8.13;100.00
11499;BME280;5806;48.748;9.278;2023-12-20T00:35:42;100879.52;;;8.08;100.00
11499;BME280;5806;48.748;9.278;2023-12-20T00:38:10;100883.52;;;8.06;100.00
11499;BME280;5806;48.748;9.278;2023-12-20T00:40:38;100887.19;;;8.18;100.00
11499;BME280;5806;48.748;9.278;2023-12-20T00:43:05;100888.97;;;8.06;100.00
11499;BME280;5806;48.748;9.278;2023-12-20T00:45:33;100907.60;;;8.09;100.00
11499;BME280;5806;48.748;9.278;2023-12-20T00:48:00;100909.13;;;8.14;100.00
11499;BME280;5806;48.748;9.278;2023-12-20T00:50:28;100903.02;;;8.18;100.00
11499;BME280;5806;48.748;9.278;2023-12-20T00:52:55;100905.61;;;8.07;100.00
11499;BME280;5806;48.748;9.278;2023-12-20T00:55:23;100913.34;;;8.10;100.00
11499;BME280;5806;48.748;9.278;2023-12-20T00:57:50;100915.83;;;8.02;100.00
11499;BME280;5806;48.748;9.278;2023-12-20T01:00:19;100916.34;;;8.02;100.00
11499;BME280;5806;48.748;9.278;2023-12-20T01:02:47;100918.47;;;8.00;100.00
11499;BME280;5806;48.748;9.278;2023-12-20T01:05:16;100919.48;;;8.05;100.00
11499;BME280;5806;48.748;9.278;2023-12-20T01:07:44;100923.70;;;8.01;100.00
11499;BME280;5806;48.748;9.278;2023-12-20T01:10:11;100921.70;;;7.99;100.00
11499;BME280;5806;48.748;9.278;2023-12-20T01:12:39;100923.98;;;7.87;100.00
11499;BME280;5806;48.748;9.278;2023-12-20T01:15:06;100925.34;;;7.87;100.00
11499;BME280;5806;48.748;9.278;2023-12-20T01:17:34;100928.70;;;7.89;100.00
11499;BME280;5806;48.748;9.278;2023-12-20T01:20:02;100927.17;;;7.84;100.00
11499;BME280;5806;48.748;9.278;2023-12-20T01:22:29;100923.12;;;7.93;100.00
11499;BME280;5806;48.748;9.278;2023-12-20T01:24:57;100934.58;;;7.86;100.00
11499;BME280;5806;48.748;9.278;2023-12-20T01:27:24;100934.88;;;7.71;100.00
11499;BME280;5806;48.748;9.278;2023-12-20T01:29:53;100934.16;;;7.73;100.00
11499;BME280;5806;48.748;9.278;2023-12-20T01:32:21;100925.05;;;7.86;100.00
11499;BME280;5806;48.748;9.278;2023-12-20T01:34:48;100936.11;;;7.91;100.00
11499;BME280;5806;48.748;9.278;2023-12-20T01:37:16;100936.28;;;7.80;100.00
11499;BME280;5806;48.748;9.278;2023-12-20T01:39:44;100940.38;;;7.80;100.00
11499;BME280;5806;48.748;9.278;2023-12-20T01:42:11;100937.05;;;7.78;100.00
11499;BME280;5806;48.748;9.278;2023-12-20T01:44:39;100946.31;;;7.86;100.00
11499;BME280;5806;48.748;9.278;2023-12-20T01:47:07;100943.68;;;7.73;100.00
11499;BME280;5806;48.748;9.278;2023-12-20T01:49:35;100954.07;;;7.83;100.00
11499;BME280;5806;48.748;9.278;2023-12-20T01:52:04;100952.99;;;7.90;100.00
11499;BME280;5806;48.748;9.278;2023-12-20T01:54:32;100963.76;;;7.94;100.00
11499;BME280;5806;48.748;9.278;2023-12-20T01:56:59;100963.72;;;7.85;100.00
11499;BME280;5806;48.748;9.278;2023-12-20T01:59:29;100962.11;;;7.87;100.00
11499;BME280;5806;48.748;9.278;2023-12-20T02:01:58;100972.23;;;7.80;100.00
11499;BME280;5806;48.748;9.278;2023-12-20T02:04:26;100964.53;;;7.86;100.00
11499;BME280;5806;48.748;9.278;2023-12-20T02:06:55;100966.70;;;7.71;100.00
11499;BME280;5806;48.748;9.278;2023-12-20T02:09:24;100969.13;;;7.70;100.00
11499;BME280;5806;48.748;9.278;2023-12-20T02:11:54;100978.12;;;7.55;100.00
11499;BME280;5806;48.748;9.278;2023-12-20T02:14:21;100976.48;;;7.69;100.00
11499;BME280;5806;48.748;9.278;2023-12-20T02:16:49;100968.22;;;7.67;100.00
11499;BME280;5806;48.748;9.278;2023-12-20T02:19:20;100970.31;;;7.65;100.00
11499;BME280;5806;48.748;9.278;2023-12-20T02:21:48;100968.35;;;7.56;100.00
11499;BME280;5806;48.748;9.278;2023-12-20T02:24:16;100978.67;;;7.48;100.00
11499;BME280;5806;48.748;9.278;2023-12-20T02:26:44;100983.20;;;7.38;100.00
11499;BME280;5806;48.748;9.278;2023-12-20T02:29:12;100981.81;;;7.45;100.00
11499;BME280;5806;48.748;9.278;2023-12-20T02:31:39;100994.69;;;7.40;100.00
11499;BME280;5806;48.748;9.278;2023-12-20T02:34:07;100982.97;;;7.46;100.00
11499;BME280;5806;48.748;9.278;2023-12-20T02:36:34;100985.53;;;7.35;100.00
11499;BME280;5806;48.748;9.278;2023-12-20T02:39:02;100985.84;;;7.36;100.00
11499;BME280;5806;48.748;9.278;2023-12-20T02:41:30;100999.13;;;7.28;100.00
11499;BME280;5806;48.748;9.278;2023-12-20T02:43:58;100999.22;;;7.02;100.00
11499;BME280;5806;48.748;9.278;2023-12-20T02:46:25;101012.70;;;7.06;100.00
11499;BME280;5806;48.748;9.278;2023-12-20T02:48:54;101012.38;;;7.12;99.40
11499;BME280;5806;48.748;9.278;2023-12-20T02:51:21;101012.94;;;6.92;100.00
11499;BME280;5806;48.748;9.278;2023-12-20T02:53:49;101013.20;;;7.19;100.00
11499;BME280;5806;48.748;9.278;2023-12-20T02:56:17;101009.47;;;7.07;100.00
11499;BME280;5806;48.748;9.278;2023-12-20T02:58:44;101003.26;;;7.15;100.00
11499;BME280;5806;48.748;9.278;2023-12-20T03:01:12;101014.56;;;7.19;100.00
11499;BME280;5806;48.748;9.278;2023-12-20T03:03:40;101007.72;;;7.32;99.46
11499;BME280;5806;48.748;9.278;2023-12-20T03:06:07;101014.16;;;7.09;98.92
11499;BME280;5806;48.748;9.278;2023-12-20T03:08:35;101024.19;;;7.08;100.00
11499;BME280;5806;48.748;9.278;2023-12-20T03:11:03;101013.72;;;7.18;100.00
11499;BME280;5806;48.748;9.278;2023-12-20T03:13:31;101024.62;;;7.12;99.70
11499;BME280;5806;48.748;9.278;2023-12-20T03:15:58;101020.66;;;7.08;100.00
11499;BME280;5806;48.748;9.278;2023-12-20T03:18:26;101019.39;;;7.10;100.00
11499;BME280;5806;48.748;9.278;2023-12-20T03:20:54;101008.94;;;7.01;98.70
11499;BME280;5806;48.748;9.278;2023-12-20T03:23:22;101010.30;;;7.01;98.41
11499;BME280;5806;48.748;9.278;2023-12-20T03:25:50;101008.52;;;7.04;98.87
11499;BME280;5806;48.748;9.278;2023-12-20T03:28:17;101003.28;;;7.09;99.12
11499;BME280;5806;48.748;9.278;2023-12-20T03:30:45;101009.81;;;6.95;98.54
11499;BME280;5806;48.748;9.278;2023-12-20T03:33:13;101007.80;;;6.99;98.15
11499;BME280;5806;48.748;9.278;2023-12-20T03:35:40;101011.88;;;6.99;98.31
11499;BME280;5806;48.748;9.278;2023-12-20T03:38:08;101004.16;;;6.96;99.76
11499;BME280;5806;48.748;9.278;2023-12-20T03:40:36;101008.34;;;6.99;99.69
11499;BME280;5806;48.748;9.278;2023-12-20T03:43:03;101002.95;;;7.14;99.05
11499;BME280;5806;48.748;9.278;2023-12-20T03:45:31;101000.48;;;7.00;98.51
11499;BME280;5806;48.748;9.278;2023-12-20T03:47:59;101002.90;;;6.99;98.46
11499;BME280;5806;48.748;9.278;2023-12-20T03:50:28;100996.48;;;7.09;98.66
11499;BME280;5806;48.748;9.278;2023-12-20T03:52:56;101006.66;;;7.04;97.69
11499;BME280;5806;48.748;9.278;2023-12-20T03:55:23;101003.47;;;7.14;98.37
11499;BME280;5806;48.748;9.278;2023-12-20T03:57:51;101011.33;;;7.13;98.35
11499;BME280;5806;48.748;9.278;2023-12-20T04:00:18;101010.06;;;7.15;98.26
11499;BME280;5806;48.748;9.278;2023-12-20T04:02:46;101013.44;;;7.11;98.09
11499;BME280;5806;48.748;9.278;2023-12-20T04:05:14;101001.94;;;7.02;97.77
11499;BME280;5806;48.748;9.278;2023-12-20T04:07:41;101006.77;;;7.00;98.21
11499;BME280;5806;48.748;9.278;2023-12-20T04:10:10;101001.36;;;7.22;98.43
11499;BME280;5806;48.748;9.278;2023-12-20T04:12:39;101002.66;;;7.13;96.93
11499;BME280;5806;48.748;9.278;2023-12-20T04:15:06;101010.28;;;7.07;96.72
11499;BME280;5806;48.748;9.278;2023-12-20T04:17:36;101005.05;;;7.06;97.58
11499;BME280;5806;48.748;9.278;2023-12-20T04:20:06;101013.33;;;7.02;97.43
11499;BME280;5806;48.748;9.278;2023-12-20T04:22:33;101008.60;;;7.13;98.94
11499;BME280;5806;48.748;9.278;2023-12-20T04:25:00;101009.47;;;7.07;97.74
11499;BME280;5806;48.748;9.278;2023-12-20T04:27:29;100996.27;;;7.10;100.00
11499;BME280;5806;48.748;9.278;2023-12-20T04:29:57;100993.25;;;7.09;97.44
11499;BME280;5806;48.748;9.278;2023-12-20T04:32:24;100995.30;;;7.14;97.16
11499;BME280;5806;48.748;9.278;2023-12-20T04:34:52;100994.44;;;7.26;97.08
11499;BME280;5806;48.748;9.278;2023-12-20T04:37:19;100992.38;;;7.15;97.26
11499;BME280;5806;48.748;9.278;2023-12-20T04:39:47;101000.56;;;7.09;97.73
11499;BME280;5806;48.748;9.278;2023-12-20T04:42:14;101006.73;;;7.13;96.65
11499;BME280;5806;48.748;9.278;2023-12-20T04:44:42;101024.09;;;7.06;96.15
11499;BME280;5806;48.748;9.278;2023-12-20T04:47:10;101022.94;;;7.17;95.78
11499;BME280;5806;48.748;9.278;2023-12-20T04:49:37;101024.39;;;7.20;95.96
11499;BME280;5806;48.748;9.278;2023-12-20T04:52:05;101032.66;;;7.16;95.63
11499;BME280;5806;48.748;9.278;2023-12-20T04:54:32;101021.69;;;7.13;96.04
11499;BME280;5806;48.748;9.278;2023-12-20T04:57:00;101024.41;;;7.13;95.76
11499;BME280;5806;48.748;9.278;2023-12-20T04:59:27;101024.48;;;7.22;96.64
11499;BME280;5806;48.748;9.278;2023-12-20T05:01:55;101019.69;;;7.11;95.85
11499;BME280;5806;48.748;9.278;2023-12-20T05:04:24;101015.38;;;7.19;96.90
11499;BME280;5806;48.748;9.278;2023-12-20T05:06:53;101019.50;;;7.06;94.77
11499;BME280;5806;48.748;9.278;2023-12-20T05:09:20;101020.22;;;7.17;95.47
11499;BME280;5806;48.748;9.278;2023-12-20T05:11:48;101025.79;;;7.07;95.51
11499;BME280;5806;48.748;9.278;2023-12-20T05:14:15;101025.12;;;7.11;96.37
11499;BME280;5806;48.748;9.278;2023-12-20T05:16:43;101018.44;;;7.07;95.56
11499;BME280;5806;48.748;9.278;2023-12-20T05:19:10;101014.91;;;7.07;94.55
11499;BME280;5806;48.748;9.278;2023-12-20T05:21:38;101021.78;;;7.16;94.33
11499;BME280;5806;48.748;9.278;2023-12-20T05:24:06;101021.38;;;7.06;94.48
11499;BME280;5806;48.748;9.278;2023-12-20T05:26:33;101026.22;;;6.97;94.69
11499;BME280;5806;48.748;9.278;2023-12-20T05:29:01;101021.41;;;6.93;94.57
11499;BME280;5806;48.748;9.278;2023-12-20T05:31:30;101024.31;;;7.11;94.21
11499;BME280;5806;48.748;9.278;2023-12-20T05:33:58;101019.70;;;7.05;93.65
11499;BME280;5806;48.748;9.278;2023-12-20T05:36:26;101020.14;;;6.95;94.35
11499;BME280;5806;48.748;9.278;2023-12-20T05:38:53;101019.32;;;6.95;93.13
11499;BME280;5806;48.748;9.278;2023-12-20T05:41:20;101025.91;;;6.83;93.76
11499;BME280;5806;48.748;9.278;2023-12-20T05:43:48;101024.31;;;6.98;94.78
11499;BME280;5806;48.748;9.278;2023-12-20T05:46:16;101021.81;;;6.90;93.81
11499;BME280;5806;48.748;9.278;2023-12-20T05:48:43;101023.20;;;6.96;94.16
11499;BME280;5806;48.748;9.278;2023-12-20T05:51:14;101024.73;;;7.08;95.29
11499;BME280;5806;48.748;9.278;2023-12-20T05:53:41;101024.23;;;6.89;94.18
11499;BME280;5806;48.748;9.278;2023-12-20T05:56:10;101022.86;;;6.95;94.37
11499;BME280;5806;48.748;9.278;2023-12-20T05:58:39;101026.83;;;6.99;94.54
11499;BME280;5806;48.748;9.278;2023-12-20T06:01:06;101026.72;;;7.03;93.87
11499;BME280;5806;48.748;9.278;2023-12-20T06:03:35;101010.02;;;6.93;94.35
11499;BME280;5806;48.748;9.278;2023-12-20T06:06:08;101018.27;;;6.96;94.74
11499;BME280;5806;48.748;9.278;2023-12-20T06:08:36;101022.98;;;6.85;95.71
11499;BME280;5806;48.748;9.278;2023-12-20T06:11:04;101024.97;;;6.74;94.03
11499;BME280;5806;48.748;9.278;2023-12-20T06:13:31;101027.27;;;6.83;93.73
11499;BME280;5806;48.748;9.278;2023-12-20T06:15:59;101019.95;;;6.84;93.91
11499;BME280;5806;48.748;9.278;2023-12-20T06:18:26;101010.97;;;6.77;93.74
11499;BME280;5806;48.748;9.278;2023-12-20T06:20:54;101023.06;;;6.94;93.91
11499;BME280;5806;48.748;9.278;2023-12-20T06:23:21;101026.64;;;6.88;95.29
11499;BME280;5806;48.748;9.278;2023-12-20T06:25:49;101024.97;;;6.93;93.26
11499;BME280;5806;48.748;9.278;2023-12-20T06:28:16;101018.67;;;6.99;93.10
11499;BME280;5806;48.748;9.278;2023-12-20T06:30:44;101023.80;;;6.98;92.55
11499;BME280;5806;48.748;9.278;2023-12-20T06:33:13;101034.78;;;7.01;93.25
11499;BME280;5806;48.748;9.278;2023-12-20T06:35:40;101031.95;;;7.05;93.80
11499;BME280;5806;48.748;9.278;2023-12-20T06:38:08;101034.77;;;7.07;93.20
11499;BME280;5806;48.748;9.278;2023-12-20T06:40:35;101041.32;;;7.22;93.85
11499;BME280;5806;48.748;9.278;2023-12-20T06:43:03;101034.16;;;7.05;93.70
11499;BME280;5806;48.748;9.278;2023-12-20T06:45:30;101037.16;;;7.13;92.83
11499;BME280;5806;48.748;9.278;2023-12-20T06:47:58;101032.05;;;7.01;92.87
11499;BME280;5806;48.748;9.278;2023-12-20T06:50:25;101042.09;;;6.94;93.58
11499;BME280;5806;48.748;9.278;2023-12-20T06:52:52;101039.38;;;7.13;93.97
11499;BME280;5806;48.748;9.278;2023-12-20T06:55:20;101029.02;;;7.06;93.59
11499;BME280;5806;48.748;9.278;2023-12-20T06:57:47;101027.75;;;7.09;92.77
11499;BME280;5806;48.748;9.278;2023-12-20T07:00:15;101027.14;;;7.07;92.95
11499;BME280;5806;48.748;9.278;2023-12-20T07:02:44;101032.48;;;7.11;93.13
11499;BME280;5806;48.748;9.278;2023-12-20T07:05:11;101027.87;;;7.05;92.87
11499;BME280;5806;48.748;9.278;2023-12-20T07:07:39;101030.70;;;7.01;92.48
11499;BME280;5806;48.748;9.278;2023-12-20T07:10:07;101031.70;;;7.19;92.89
11499;BME280;5806;48.748;9.278;2023-12-20T07:12:34;101036.44;;;7.15;93.15
11499;BME280;5806;48.748;9.278;2023-12-20T07:15:02;101041.05;;;7.08;92.30
11499;BME280;5806;48.748;9.278;2023-12-20T07:17:29;101042.41;;;7.08;93.30
11499;BME280;5806;48.748;9.278;2023-12-20T07:19:57;101042.11;;;7.07;92.82
11499;BME280;5806;48.748;9.278;2023-12-20T07:22:24;101037.69;;;7.06;93.21
11499;BME280;5806;48.748;9.278;2023-12-20T07:24:52;101044.70;;;7.17;93.10
11499;BME280;5806;48.748;9.278;2023-12-20T07:27:21;101036.50;;;7.30;91.53
11499;BME280;5806;48.748;9.278;2023-12-20T07:29:48;101039.55;;;7.25;91.52
11499;BME280;5806;48.748;9.278;2023-12-20T07:32:15;101037.77;;;7.28;91.11
11499;BME280;5806;48.748;9.278;2023-12-20T07:34:43;101043.64;;;7.18;92.50
11499;BME280;5806;48.748;9.278;2023-12-20T07:37:10;101040.08;;;7.18;91.66
11499;BME280;5806;48.748;9.278;2023-12-20T07:39:39;101034.23;;;7.14;92.16
11499;BME280;5806;48.748;9.278;2023-12-20T07:42:07;101033.17;;;7.15;89.93
11499;BME280;5806;48.748;9.278;2023-12-20T07:44:35;101042.56;;;7.26;91.64
11499;BME280;5806;48.748;9.278;2023-12-20T07:47:03;101035.89;;;7.57;89.42
11499;BME280;5806;48.748;9.278;2023-12-20T07:49:32;101034.95;;;7.25;88.68
11499;BME280;5806;48.748;9.278;2023-12-20T07:51:59;101046.21;;;7.35;88.45
11499;BME280;5806;48.748;9.278;2023-12-20T07:54:27;101055.22;;;7.36;89.42
11499;BME280;5806;48.748;9.278;2023-12-20T07:56:55;101048.84;;;7.33;89.51
11499;BME280;5806;48.748;9.278;2023-12-20T07:59:22;101047.03;;;7.42;90.09
11499;BME280;5806;48.748;9.278;2023-12-20T08:01:49;101046.47;;;7.56;88.58
11499;BME280;5806;48.748;9.278;2023-12-20T08:04:17;101047.98;;;7.32;88.41
11499;BME280;5806;48.748;9.278;2023-12-20T08:06:44;101046.05;;;7.24;89.71
11499;BME280;5806;48.748;9.278;2023-12-20T08:09:12;101048.23;;;7.31;89.90
11499;BME280;5806;48.748;9.278;2023-12-20T08:11:39;101043.98;;;7.48;90.13
11499;BME280;5806;48.748;9.278;2023-12-20T08:14:06;101053.36;;;7.23;90.90
11499;BME280;5806;48.748;9.278;2023-12-20T08:16:34;101052.38;;;7.40;89.16
11499;BME280;5806;48.748;9.278;2023-12-20T08:19:01;101058.03;;;7.38;89.25
11499;BME280;5806;48.748;9.278;2023-12-20T08:21:29;101056.14;;;7.45;89.26
11499;BME280;5806;48.748;9.278;2023-12-20T08:23:56;101061.59;;;7.32;87.95
11499;BME280;5806;48.748;9.278;2023-12-20T08:26:24;101054.70;;;7.30;87.82
11499;BME280;5806;48.748;9.278;2023-12-20T08:28:51;101055.62;;;7.39;89.06
11499;BME280;5806;48.748;9.278;2023-12-20T08:31:19;101050.10;;;7.30;88.30
11499;BME280;5806;48.748;9.278;2023-12-20T08:33:48;101046.75;;;7.35;88.25
11499;BME280;5806;48.748;9.278;2023-12-20T08:36:16;101057.00;;;7.33;89.01
11499;BME280;5806;48.748;9.278;2023-12-20T08:38:44;101062.84;;;7.36;88.28
11499;BME280;5806;48.748;9.278;2023-12-20T08:41:12;101055.73;;;7.35;87.01
11499;BME280;5806;48.748;9.278;2023-12-20T08:43:39;101049.01;;;7.51;87.35
11499;BME280;5806;48.748;9.278;2023-12-20T08:46:07;101044.92;;;7.51;86.76
11499;BME280;5806;48.748;9.278;2023-12-20T08:48:36;101050.81;;;7.41;86.89
11499;BME280;5806;48.748;9.278;2023-12-20T08:51:04;101056.66;;;7.45;87.34
11499;BME280;5806;48.748;9.278;2023-12-20T08:53:33;101065.45;;;7.47;86.43
11499;BME280;5806;48.748;9.278;2023-12-20T08:56:01;101067.84;;;7.46;86.02
11499;BME280;5806;48.748;9.278;2023-12-20T08:58:28;101068.99;;;7.47;86.22
11499;BME280;5806;48.748;9.278;2023-12-20T09:00:56;101073.85;;;7.39;86.54
11499;BME280;5806;48.748;9.278;2023-12-20T09:03:25;101075.84;;;7.34;88.22
11499;BME280;5806;48.748;9.278;2023-12-20T09:05:52;101073.19;;;7.43;87.01
11499;BME280;5806;48.748;9.278;2023-12-20T09:08:20;101079.59;;;7.40;86.29
11499;BME280;5806;48.748;9.278;2023-12-20T09:10:47;101071.75;;;7.34;87.29
11499;BME280;5806;48.748;9.278;2023-12-20T09:13:15;101077.30;;;7.37;86.28
11499;BME280;5806;48.748;9.278;2023-12-20T09:15:42;101075.20;;;7.32;87.71
11499;BME280;5806;48.748;9.278;2023-12-20T09:18:10;101080.28;;;7.57;87.92
11499;BME280;5806;48.748;9.278;2023-12-20T09:20:37;101075.42;;;7.37;86.49
11499;BME280;5806;48.748;9.278;2023-12-20T09:23:05;101068.30;;;7.30;86.82
11499;BME280;5806;48.748;9.278;2023-12-20T09:25:32;101063.52;;;7.25;86.96
11499;BME280;5806;48.748;9.278;2023-12-20T09:28:00;101056.05;;;7.30;86.36
11499;BME280;5806;48.748;9.278;2023-12-20T09:30:27;101052.29;;;7.37;86.14
11499;BME280;5806;48.748;9.278;2023-12-20T09:32:55;101055.14;;;7.27;86.59
11499;BME280;5806;48.748;9.278;2023-12-20T09:35:23;101054.58;;;7.34;86.72
11499;BME280;5806;48.748;9.278;2023-12-20T09:37:52;101048.09;;;7.41;86.11
11499;BME280;5806;48.748;9.278;2023-12-20T09:40:19;101046.84;;;7.37;85.27
11499;BME280;5806;48.748;9.278;2023-12-20T09:43:03;101047.01;;;7.49;86.09
11499;BME280;5806;48.748;9.278;2023-12-20T09:45:32;101056.91;;;7.30;85.56
11499;BME280;5806;48.748;9.278;2023-12-20T09:47:59;101042.44;;;7.43;85.80
11499;BME280;5806;48.748;9.278;2023-12-20T09:50:27;101041.20;;;7.39;87.20
11499;BME280;5806;48.748;9.278;2023-12-20T09:52:58;101035.00;;;7.41;85.87
11499;BME280;5806;48.748;9.278;2023-12-20T09:55:26;101043.23;;;7.50;86.87
11499;BME280;5806;48.748;9.278;2023-12-20T09:57:55;101041.52;;;7.62;85.38
11499;BME280;5806;48.748;9.278;2023-12-20T10:00:22;101045.95;;;7.50;86.18
11499;BME280;5806;48.748;9.278;2023-12-20T10:02:57;101037.63;;;7.38;85.49
11499;BME280;5806;48.748;9.278;2023-12-20T10:05:32;101040.48;;;7.56;85.41
11499;BME280;5806;48.748;9.278;2023-12-20T10:08:00;101047.52;;;7.48;85.55
11499;BME280;5806;48.748;9.278;2023-12-20T10:10:29;101045.53;;;7.53;85.68
11499;BME280;5806;48.748;9.278;2023-12-20T10:13:07;101050.16;;;7.46;85.10
11499;BME280;5806;48.748;9.278;2023-12-20T10:15:36;101050.92;;;7.66;85.15
11499;BME280;5806;48.748;9.278;2023-12-20T10:18:04;101050.77;;;7.54;84.89
11499;BME280;5806;48.748;9.278;2023-12-20T10:20:33;101033.80;;;7.52;85.29
11499;BME280;5806;48.748;9.278;2023-12-20T10:23:01;101037.25;;;7.57;85.36
11499;BME280;5806;48.748;9.278;2023-12-20T10:25:28;101040.06;;;7.59;84.96
11499;BME280;5806;48.748;9.278;2023-12-20T10:28:17;101033.13;;;7.63;84.82
11499;BME280;5806;48.748;9.278;2023-12-20T10:30:46;101038.81;;;7.55;84.50
11499;BME280;5806;48.748;9.278;2023-12-20T10:33:15;101033.37;;;7.55;84.98
11499;BME280;5806;48.748;9.278;2023-12-20T10:35:43;101029.81;;;7.61;85.89
11499;BME280;5806;48.748;9.278;2023-12-20T10:38:10;101020.06;;;7.56;85.47
11499;BME280;5806;48.748;9.278;2023-12-20T10:40:40;101012.99;;;7.49;86.74
11499;BME280;5806;48.748;9.278;2023-12-20T10:43:08;101016.89;;;7.44;85.36
11499;BME280;5806;48.748;9.278;2023-12-20T10:45:36;101014.11;;;7.57;85.18
11499;BME280;5806;48.748;9.278;2023-12-20T10:48:04;101014.53;;;7.54;84.20
11499;BME280;5806;48.748;9.278;2023-12-20T10:50:32;101008.09;;;7.70;85.94
11499;BME280;5806;48.748;9.278;2023-12-20T10:53:00;100997.53;;;7.65;85.23
11499;BME280;5806;48.748;9.278;2023-12-20T10:55:28;101002.62;;;7.55;84.62
11499;BME280;5806;48.748;9.278;2023-12-20T10:58:00;100993.75;;;7.66;84.40
11499;BME280;5806;48.748;9.278;2023-12-20T11:00:29;100999.41;;;7.64;85.47
11499;BME280;5806;48.748;9.278;2023-12-20T11:03:00;100999.41;;;7.64;84.46
11499;BME280;5806;48.748;9.278;2023-12-20T11:05:38;101005.61;;;7.62;84.79
11499;BME280;5806;48.748;9.278;2023-12-20T11:08:10;100996.51;;;7.59;84.00
11499;BME280;5806;48.748;9.278;2023-12-20T11:13:32;100997.60;;;7.52;84.56
11499;BME280;5806;48.748;9.278;2023-12-20T11:16:00;101004.83;;;7.49;84.79
11499;BME280;5806;48.748;9.278;2023-12-20T11:18:31;100993.81;;;7.53;84.71
11499;BME280;5806;48.748;9.278;2023-12-20T11:21:02;100998.41;;;7.59;84.48
11499;BME280;5806;48.748;9.278;2023-12-20T11:23:32;100999.02;;;7.61;84.84
11499;BME280;5806;48.748;9.278;2023-12-20T11:26:01;100996.54;;;7.53;84.38
11499;BME280;5806;48.748;9.278;2023-12-20T11:28:29;100998.50;;;7.61;84.49
11499;BME280;5806;48.748;9.278;2023-12-20T11:30:58;101005.31;;;7.61;84.47
11499;BME280;5806;48.748;9.278;2023-12-20T11:33:32;100999.87;;;7.61;84.33
11499;BME280;5806;48.748;9.278;2023-12-20T11:36:00;100996.05;;;7.69;84.89
11499;BME280;5806;48.748;9.278;2023-12-20T11:38:36;100985.13;;;7.75;84.61
11499;BME280;5806;48.748;9.278;2023-12-20T11:41:05;100981.59;;;7.68;84.36
11499;BME280;5806;48.748;9.278;2023-12-20T11:43:35;100975.63;;;7.69;84.68
11499;BME280;5806;48.748;9.278;2023-12-20T11:46:08;100971.12;;;7.72;83.93
11499;BME280;5806;48.748;9.278;2023-12-20T11:48:38;100976.44;;;7.76;84.69
11499;BME280;5806;48.748;9.278;2023-12-20T11:51:13;100973.84;;;7.72;84.14
11499;BME280;5806;48.748;9.278;2023-12-20T11:53:41;100977.84;;;7.69;84.06
11499;BME280;5806;48.748;9.278;2023-12-20T11:56:09;100980.56;;;7.69;83.88
11499;BME280;5806;48.748;9.278;2023-12-20T11:58:37;100959.73;;;7.66;84.27
11499;BME280;5806;48.748;9.278;2023-12-20T12:01:05;100974.45;;;7.74;84.59
11499;BME280;5806;48.748;9.278;2023-12-20T12:03:34;100969.17;;;7.79;84.55
11499;BME280;5806;48.748;9.278;2023-12-20T12:06:02;100957.17;;;7.71;84.25
11499;BME280;5806;48.748;9.278;2023-12-20T12:08:30;100961.34;;;7.80;83.65
11499;BME280;5806;48.748;9.278;2023-12-20T12:10:58;100957.30;;;7.89;83.41
11499;BME280;5806;48.748;9.278;2023-12-20T12:13:26;100952.41;;;7.82;83.69
11499;BME280;5806;48.748;9.278;2023-12-20T12:15:54;100953.30;;;7.91;84.00
11499;BME280;5806;48.748;9.278;2023-12-20T12:18:22;100952.95;;;7.81;84.48
11499;BME280;5806;48.748;9.278;2023-12-20T12:20:49;100947.12;;;7.87;83.38
11499;BME280;5806;48.748;9.278;2023-12-20T12:23:25;100958.83;;;7.94;84.00
11499;BME280;5806;48.748;9.278;2023-12-20T12:25:50;100944.54;;;7.83;83.94
11499;BME280;5806;48.748;9.278;2023-12-20T12:28:18;100944.87;;;7.84;83.71
11499;BME280;5806;48.748;9.278;2023-12-20T12:30:56;100929.68;;;7.85;85.42
11499;BME280;5806;48.748;9.278;2023-12-20T12:33:26;100929.05;;;7.83;84.48
11499;BME280;5806;48.748;9.278;2023-12-20T12:35:54;100934.02;;;7.77;84.59
11499;BME280;5806;48.748;9.278;2023-12-20T12:38:22;100929.83;;;8.06;85.40
11499;BME280;5806;48.748;9.278;2023-12-20T12:40:51;100929.31;;;7.75;84.82
11499;BME280;5806;48.748;9.278;2023-12-20T12:43:19;100922.16;;;7.81;84.96
11499;BME280;5806;48.748;9.278;2023-12-20T12:45:49;100928.53;;;7.84;84.88
11499;BME280;5806;48.748;9.278;2023-12-20T12:48:16;100921.70;;;7.68;85.58
11499;BME280;5806;48.748;9.278;2023-12-20T12:50:45;100911.98;;;7.85;85.75
11499;BME280;5806;48.748;9.278;2023-12-20T12:53:12;100913.42;;;7.88;85.56
11499;BME280;5806;48.748;9.278;2023-12-20T12:55:40;100918.12;;;7.74;85.09
11499;BME280;5806;48.748;9.278;2023-12-20T12:58:07;100913.47;;;7.81;84.93
11499;BME280;5806;48.748;9.278;2023-12-20T13:00:35;100914.78;;;7.88;85.19
11499;BME280;5806;48.748;9.278;2023-12-20T13:03:03;100913.22;;;7.83;85.50
11499;BME280;5806;48.748;9.278;2023-12-20T13:05:30;100903.27;;;7.86;85.26
11499;BME280;5806;48.748;9.278;2023-12-20T13:07:58;100902.66;;;7.84;85.46
11499;BME280;5806;48.748;9.278;2023-12-20T13:10:25;100903.27;;;7.86;84.66
11499;BME280;5806;48.748;9.278;2023-12-20T13:12:52;100887.19;;;7.78;85.87
11499;BME280;5806;48.748;9.278;2023-12-20T13:15:20;100886.92;;;7.86;86.01